Ce_breeze — ELSQ7 — position and weather

sailwx.info

Track history (hours):
 
Tides and Currents Weather Stations Pressure Air Temp Water Temp Dewpoint Dewpoint Depression Visibility Wind Speed Wind Dir Waves Ship Positions

Ce_breeze

Last reported at 2015-Mar-15 14:33 UTC. Time now 2015-Apr-01 10:38 UTC.
Position N 41°15' E 029°08'.
Warning: this ship's position is 16 days out of date.

Length 240 m; draft 12.7 m.

Type: Tanker. MMSI: 636010400.

Date/timePositionNaut miles runAvg speedWind from/ knotsBaromVisibWave heightAir tempDewpointWater temp
2015-Mar-15 14:33N 41°15' E 029°08'8 7.8
2015-Mar-15 13:33N 41°22' E 029°10'8 1.7
2015-Mar-15 08:33N 41°30' E 029°12'2 1.7
2015-Mar-15 07:33N 41°30' E 029°15'7 0.7
2015-Mar-14 21:33N 41°24' E 029°10'8 7.9
2015-Mar-14 20:31N 41°26' E 029°20'1211.5
2015-Mar-14 19:30N 41°32' E 029°34'40112.4
2015-Mar-13 11:07N 44°32' E 037°43'8 9.5
2015-Mar-13 10:17N 44°39' E 037°50'2 0.1
2015-Mar-12 12:12N 44°40' E 037°50'8 8.3
2015-Mar-12 11:15N 44°33' E 037°52'2 0.5
2015-Mar-12 07:23N 44°32' E 037°54'2 0.9
2015-Mar-12 05:32N 44°30' E 037°55'1 0.8
2015-Mar-12 04:15N 44°29' E 037°55'0 0.2
2015-Mar-12 03:20N 44°29' E 037°55'1 0.8
2015-Mar-12 02:30N 44°30' E 037°54'1 0.8
2015-Mar-12 01:16N 44°30' E 037°53'1 0.7
2015-Mar-12 00:05N 44°30' E 037°52'0 0.6
2015-Mar-11 23:22N 44°31' E 037°52'1 0.7
2015-Mar-11 22:20N 44°31' E 037°51'1 0.7
2015-Mar-11 21:16N 44°31' E 037°50'1 0.5
2015-Mar-11 20:11N 44°30' E 037°49'0 0.5
2015-Mar-11 19:30N 44°30' E 037°48'1 0.7
2015-Mar-11 18:23N 44°29' E 037°48'2 0.8
2015-Mar-11 16:16N 44°28' E 037°50'1 0.8
2015-Mar-11 15:13N 44°28' E 037°51'1 0.7
2015-Mar-11 14:25N 44°29' E 037°51'1 0.7
2015-Mar-11 13:19N 44°29' E 037°52'0 0.2
2015-Mar-11 11:21N 44°29' E 037°53'0 0.2
2015-Mar-11 10:17N 44°29' E 037°53'0 0.1
2015-Mar-11 07:22N 44°29' E 037°53'1 0.3
2015-Mar-11 05:31N 44°30' E 037°52'7 6.8
2015-Mar-11 04:29N 44°31' E 037°42'2611.1
2015-Mar-11 02:06N 44°17' E 037°11'1912.2
2015-Mar-11 00:33N 44°09' E 036°47'2611.7
2015-Mar-10 22:17N 44°02' E 036°12'1212.2
2015-Mar-10 21:17N 44°01' E 035°55'1012.1
2015-Mar-10 20:28N 44°02' E 035°41'1112.1
2015-Mar-10 19:32N 44°02' E 035°25'1211.9
2015-Mar-10 18:33N 44°02' E 035°09'1211.6
2015-Mar-10 17:33N 44°02' E 034°53'1211.6
2015-Mar-10 16:33N 44°02' E 034°37'1111.3
2015-Mar-10 15:33N 44°02' E 034°21'1110.9
2015-Mar-10 14:33N 44°02' E 034°06'1110.6
2015-Mar-10 13:33N 44°02' E 033°51'120035.3
2015-Mar-09 03:33N 57°41' E 010°42'  
Track history (hours):
 
Tides and Currents Weather Stations Pressure Air Temp Water Temp Dewpoint Dewpoint Depression Visibility Wind Speed Wind Dir Waves Ship Positions

Ce_breeze

Last reported at 2015-Mar-15 14:33 UTC. Time now 2015-Apr-01 10:38 UTC.
Position N 41°15' E 029°08'.
Warning: this ship's position is 16 days out of date.

Length 240 m; draft 12.7 m.

Type: Tanker. MMSI: 636010400.

Date/timePositionNaut miles runAvg speedWind from/ knotsBaromVisibWave heightAir tempDewpointWater temp
2015-Mar-15 14:33N 41°15' E 029°08'8 7.8
2015-Mar-15 13:33N 41°22' E 029°10'8 1.7
2015-Mar-15 08:33N 41°30' E 029°12'2 1.7
2015-Mar-15 07:33N 41°30' E 029°15'7 0.7
2015-Mar-14 21:33N 41°24' E 029°10'8 7.9
2015-Mar-14 20:31N 41°26' E 029°20'1211.5
2015-Mar-14 19:30N 41°32' E 029°34'40112.4
2015-Mar-13 11:07N 44°32' E 037°43'8 9.5
2015-Mar-13 10:17N 44°39' E 037°50'2 0.1
2015-Mar-12 12:12N 44°40' E 037°50'8 8.3
2015-Mar-12 11:15N 44°33' E 037°52'2 0.5
2015-Mar-12 07:23N 44°32' E 037°54'2 0.9
2015-Mar-12 05:32N 44°30' E 037°55'1 0.8
2015-Mar-12 04:15N 44°29' E 037°55'0 0.2
2015-Mar-12 03:20N 44°29' E 037°55'1 0.8
2015-Mar-12 02:30N 44°30' E 037°54'1 0.8
2015-Mar-12 01:16N 44°30' E 037°53'1 0.7
2015-Mar-12 00:05N 44°30' E 037°52'0 0.6
2015-Mar-11 23:22N 44°31' E 037°52'1 0.7
2015-Mar-11 22:20N 44°31' E 037°51'1 0.7
2015-Mar-11 21:16N 44°31' E 037°50'1 0.5
2015-Mar-11 20:11N 44°30' E 037°49'0 0.5
2015-Mar-11 19:30N 44°30' E 037°48'1 0.7
2015-Mar-11 18:23N 44°29' E 037°48'2 0.8
2015-Mar-11 16:16N 44°28' E 037°50'1 0.8
2015-Mar-11 15:13N 44°28' E 037°51'1 0.7
2015-Mar-11 14:25N 44°29' E 037°51'1 0.7
2015-Mar-11 13:19N 44°29' E 037°52'0 0.2
2015-Mar-11 11:21N 44°29' E 037°53'0 0.2
2015-Mar-11 10:17N 44°29' E 037°53'0 0.1
2015-Mar-11 07:22N 44°29' E 037°53'1 0.3
2015-Mar-11 05:31N 44°30' E 037°52'7 6.8
2015-Mar-11 04:29N 44°31' E 037°42'2611.1
2015-Mar-11 02:06N 44°17' E 037°11'1912.2
2015-Mar-11 00:33N 44°09' E 036°47'2611.7
2015-Mar-10 22:17N 44°02' E 036°12'1212.2
2015-Mar-10 21:17N 44°01' E 035°55'1012.1
2015-Mar-10 20:28N 44°02' E 035°41'1112.1
2015-Mar-10 19:32N 44°02' E 035°25'1211.9
2015-Mar-10 18:33N 44°02' E 035°09'1211.6
2015-Mar-10 17:33N 44°02' E 034°53'1211.6
2015-Mar-10 16:33N 44°02' E 034°37'1111.3
2015-Mar-10 15:33N 44°02' E 034°21'1110.9
2015-Mar-10 14:33N 44°02' E 034°06'1110.6
2015-Mar-10 13:33N 44°02' E 033°51'120035.3
2015-Mar-09 03:33N 57°41' E 010°42'  

Dump ship's entire track history